Time;durP1;ratioP1;P1;durP2;ratioP2;P2;SDS_P1;SDS_P2;PMS_P1;PMS_P2;Temp;Humidity;BMP_temperature;BMP_pressure;BME280_temperature;BME280_humidity;BME280_pressure;Samples;Min_cycle;Max_cycle;Signal;HPM_P1;HPM_P2
2021/08/14 00:01:47;;;;;;;21.63;16.05;;;18.80;99.90;;;;;;5055552;28;20044;-76
2021/08/14 00:04:14;;;;;;;18.90;17.00;;;18.90;99.90;;;;;;5065351;28;20040;-76
2021/08/14 00:06:40;;;;;;;21.40;16.80;;;18.90;99.90;;;;;;5064388;28;20036;-76
2021/08/14 00:09:06;;;;;;;17.98;16.08;;;18.80;99.90;;;;;;5055974;28;20489;-77
2021/08/14 00:11:32;;;;;;;25.90;17.30;;;18.70;99.90;;;;;;5054770;28;20363;-76
2021/08/14 00:13:58;;;;;;;22.25;18.30;;;18.60;99.90;;;;;;5057013;28;20025;-76
2021/08/14 00:16:25;;;;;;;20.95;17.33;;;18.60;99.90;;;;;;5070957;28;20033;-76
2021/08/14 00:18:51;;;;;;;18.98;15.57;;;18.60;99.90;;;;;;5060816;28;20036;-76
2021/08/14 00:21:17;;;;;;;20.60;18.20;;;18.70;99.90;;;;;;5056935;28;20037;-76
2021/08/14 00:23:43;;;;;;;19.80;17.42;;;18.50;99.90;;;;;;5054816;28;20029;-77
2021/08/14 00:26:09;;;;;;;18.92;16.95;;;18.50;99.90;;;;;;5068767;28;20037;-76
2021/08/14 00:28:37;;;;;;;24.48;18.48;;;18.50;99.90;;;;;;5062718;28;20405;-75
2021/08/14 00:31:03;;;;;;;18.67;16.67;;;18.50;99.90;;;;;;5054442;28;20033;-77
2021/08/14 00:33:29;;;;;;;21.38;16.23;;;18.60;99.90;;;;;;5054347;28;20057;-75
2021/08/14 00:35:55;;;;;;;17.08;15.38;;;18.50;99.90;;;;;;5054439;28;20033;-75
2021/08/14 00:38:21;;;;;;;19.60;16.25;;;18.40;99.90;;;;;;5054178;28;20036;-74
2021/08/14 00:40:47;;;;;;;18.85;16.85;;;18.30;99.90;;;;;;5053583;28;20881;-75
2021/08/14 00:43:14;;;;;;;18.38;15.00;;;18.20;99.90;;;;;;5054205;28;20028;-75
2021/08/14 00:45:42;;;;;;;17.48;15.60;;;18.20;99.90;;;;;;5061784;28;20040;-77
2021/08/14 00:48:09;;;;;;;17.90;16.10;;;18.30;99.90;;;;;;5066752;28;20398;-77
2021/08/14 00:50:37;;;;;;;18.90;15.93;;;18.20;99.90;;;;;;5054877;28;20036;-77
2021/08/14 00:53:04;;;;;;;18.80;15.73;;;18.10;99.90;;;;;;5068592;28;20072;-76
2021/08/14 00:55:31;;;;;;;18.60;16.55;;;18.00;99.90;;;;;;5069083;28;20044;-78
2021/08/14 00:57:57;;;;;;;17.60;15.73;;;18.00;99.90;;;;;;5051482;28;20021;-77
2021/08/14 01:00:25;;;;;;;20.02;15.15;;;17.90;99.90;;;;;;5069246;28;20041;-75
2021/08/14 01:02:55;;;;;;;18.48;14.77;;;17.80;99.90;;;;;;5063377;28;20033;-76
2021/08/14 01:05:21;;;;;;;;;;;17.80;99.90;;;;;;5068456;28;20029;-75
2021/08/14 01:07:49;;;;;;;19.02;15.30;;;17.80;99.90;;;;;;5062360;28;19999;-76
2021/08/14 01:10:15;;;;;;;17.27;14.88;;;17.70;99.90;;;;;;5063794;28;20493;-75
2021/08/14 01:12:41;;;;;;;17.50;15.63;;;17.60;99.90;;;;;;5067875;28;20029;-76
2021/08/14 01:15:08;;;;;;;17.70;15.63;;;17.70;99.90;;;;;;5053702;28;20029;-76
2021/08/14 01:17:35;;;;;;;18.63;15.85;;;17.80;99.90;;;;;;5054625;28;20037;-76
2021/08/14 01:20:04;;;;;;;17.65;15.63;;;17.70;99.90;;;;;;5052519;28;20067;-75
2021/08/14 01:22:30;;;;;;;18.30;15.00;;;17.70;99.90;;;;;;5053529;28;20036;-75
2021/08/14 01:24:56;;;;;;;17.42;15.07;;;17.70;99.90;;;;;;5053810;28;20032;-76
2021/08/14 01:27:22;;;;;;;19.95;14.77;;;17.60;99.90;;;;;;5053346;28;20033;-75
2021/08/14 01:29:49;;;;;;;17.83;15.60;;;17.50;99.90;;;;;;5053158;28;20037;-75
2021/08/14 01:32:15;;;;;;;18.35;15.57;;;17.40;99.90;;;;;;5052464;28;20435;-75
2021/08/14 01:34:43;;;;;;;17.98;15.32;;;17.30;99.90;;;;;;5053513;28;20033;-76
2021/08/14 01:37:10;;;;;;;19.45;15.65;;;17.30;99.90;;;;;;5052869;28;20036;-76
2021/08/14 01:39:36;;;;;;;19.55;16.48;;;17.30;99.90;;;;;;5053509;28;20025;-76
2021/08/14 01:42:05;;;;;;;19.08;15.63;;;17.40;99.90;;;;;;5053820;28;20029;-75
2021/08/14 01:44:33;;;;;;;18.05;15.55;;;17.40;99.90;;;;;;5053202;28;20374;-76
2021/08/14 01:46:59;;;;;;;16.83;14.55;;;17.40;99.90;;;;;;5052943;28;20474;-76
2021/08/14 01:49:25;;;;;;;21.65;15.15;;;17.40;99.90;;;;;;5052582;28;20032;-76
2021/08/14 01:51:51;;;;;;;17.02;15.15;;;17.30;99.90;;;;;;5067011;28;20036;-78
2021/08/14 01:54:18;;;;;;;17.55;14.15;;;17.10;99.90;;;;;;5052553;28;20039;-76
2021/08/14 01:56:44;;;;;;;18.05;15.93;;;17.10;99.90;;;;;;5065017;28;20460;-75
2021/08/14 01:59:11;;;;;;;18.70;15.43;;;17.10;99.90;;;;;;5052260;28;20040;-76
2021/08/14 02:01:38;;;;;;;17.50;15.48;;;17.20;99.90;;;;;;5068895;28;20055;-76
2021/08/14 02:04:05;;;;;;;18.77;15.68;;;17.30;99.90;;;;;;5059635;28;20044;-75
2021/08/14 02:06:31;;;;;;;21.45;16.05;;;17.20;99.90;;;;;;5061114;28;20474;-76
2021/08/14 02:08:58;;;;;;;16.95;14.60;;;17.20;99.90;;;;;;5053102;28;20040;-75
2021/08/14 02:11:26;;;;;;;17.77;15.85;;;17.10;99.90;;;;;;5052507;28;20040;-76
2021/08/14 02:13:53;;;;;;;16.27;14.38;;;17.20;99.90;;;;;;5062572;28;20036;-75
2021/08/14 02:16:20;;;;;;;16.85;13.98;;;17.10;99.90;;;;;;5066514;28;20041;-76
2021/08/14 02:18:47;;;;;;;16.45;14.13;;;17.20;99.90;;;;;;5052832;28;20372;-76
2021/08/14 02:21:13;;;;;;;17.23;15.43;;;17.10;99.90;;;;;;5056938;28;20045;-76
2021/08/14 02:23:41;;;;;;;16.60;14.50;;;17.00;99.90;;;;;;5066990;28;20036;-75
2021/08/14 02:26:07;;;;;;;17.55;14.18;;;17.00;99.90;;;;;;5052155;28;20029;-78
2021/08/14 02:28:34;;;;;;;16.88;15.05;;;17.10;99.90;;;;;;5052261;28;20047;-76
2021/08/14 02:31:02;;;;;;;16.77;14.88;;;17.10;99.90;;;;;;5052608;28;20036;-76
2021/08/14 02:33:30;;;;;;;16.83;14.57;;;17.10;99.90;;;;;;5052052;28;20052;-76
2021/08/14 02:35:56;;;;;;;17.95;13.77;;;17.10;99.90;;;;;;5061046;28;20037;-75
2021/08/14 02:38:24;;;;;;;14.93;13.32;;;17.00;99.90;;;;;;5071135;28;20543;-76
2021/08/14 02:40:50;;;;;;;16.52;14.73;;;16.90;99.90;;;;;;5065314;28;20033;-76
2021/08/14 02:43:17;;;;;;;17.02;14.82;;;16.90;99.90;;;;;;5053826;28;20545;-76
2021/08/14 02:45:45;;;;;;;19.65;15.05;;;16.80;99.90;;;;;;5072272;28;20382;-75
2021/08/14 02:48:11;;;;;;;16.85;15.00;;;16.70;99.90;;;;;;5058729;28;20024;-75
2021/08/14 02:50:41;;;;;;;17.88;15.48;;;16.60;99.90;;;;;;5069061;28;20454;-76
2021/08/14 02:53:07;;;;;;;17.05;15.25;;;16.60;99.90;;;;;;5052012;28;20470;-78
2021/08/14 02:55:34;;;;;;;17.92;15.85;;;16.50;99.90;;;;;;5065735;28;20447;-75
2021/08/14 02:58:00;;;;;;;19.30;15.40;;;16.50;99.90;;;;;;5052107;28;20040;-75
2021/08/14 03:00:27;;;;;;;18.48;16.10;;;16.50;99.90;;;;;;5051569;28;20275;-76
2021/08/14 03:02:53;;;;;;;17.42;15.38;;;16.50;99.90;;;;;;5058305;28;20040;-76
2021/08/14 03:05:20;;;;;;;17.67;15.75;;;16.50;99.90;;;;;;5070788;28;20044;-76
2021/08/14 03:07:46;;;;;;;16.70;14.15;;;16.50;99.90;;;;;;5066209;28;20049;-75
2021/08/14 03:10:12;;;;;;;17.08;14.30;;;16.50;99.90;;;;;;5050699;28;20388;-76
2021/08/14 03:12:38;;;;;;;17.15;15.10;;;16.50;99.90;;;;;;5059709;28;20041;-76
2021/08/14 03:15:06;;;;;;;16.92;15.18;;;16.40;99.90;;;;;;5059176;28;20033;-75
2021/08/14 03:17:32;;;;;;;21.52;15.50;;;16.30;99.90;;;;;;5084026;28;20467;-75
2021/08/14 03:20:01;;;;;;;21.92;15.95;;;16.20;99.90;;;;;;5052153;28;20025;-75
2021/08/14 03:22:27;;;;;;;17.20;14.82;;;16.20;99.90;;;;;;5060420;28;20040;-75
2021/08/14 03:24:53;;;;;;;18.73;14.88;;;16.30;99.90;;;;;;5063252;28;20029;-76
2021/08/14 03:27:20;;;;;;;16.40;14.57;;;16.30;99.90;;;;;;5061205;28;20032;-76
2021/08/14 03:29:46;;;;;;;19.90;14.60;;;16.30;99.90;;;;;;5072173;28;20028;-76
2021/08/14 03:32:12;;;;;;;15.35;13.73;;;16.20;99.90;;;;;;5056709;28;20402;-76
2021/08/14 03:34:38;;;;;;;16.80;15.00;;;16.10;99.90;;;;;;5058844;28;20033;-76
2021/08/14 03:37:05;;;;;;;18.73;14.77;;;16.10;99.90;;;;;;5050329;28;20689;-76
2021/08/14 03:39:31;;;;;;;15.25;13.00;;;16.10;99.90;;;;;;5049029;28;20036;-73
2021/08/14 03:41:57;;;;;;;18.80;15.45;;;16.20;99.90;;;;;;5067526;28;20032;-76
2021/08/14 03:44:23;;;;;;;17.35;14.60;;;16.20;99.90;;;;;;5053060;28;20025;-75
2021/08/14 03:46:49;;;;;;;16.95;13.98;;;16.10;99.90;;;;;;5051764;28;20052;-75
2021/08/14 03:49:16;;;;;;;15.93;13.88;;;16.10;99.90;;;;;;5059328;28;20037;-75
2021/08/14 03:51:42;;;;;;;17.10;15.30;;;16.00;99.90;;;;;;5061882;28;20029;-75
2021/08/14 03:54:08;;;;;;;18.65;14.10;;;15.90;99.90;;;;;;5051514;28;20033;-78
2021/08/14 03:56:34;;;;;;;17.80;14.27;;;15.80;99.90;;;;;;5051007;28;20033;-76
2021/08/14 03:59:01;;;;;;;19.52;14.85;;;15.90;99.90;;;;;;5051782;28;20037;-76
2021/08/14 04:01:27;;;;;;;20.13;15.35;;;15.90;99.90;;;;;;5064029;28;20063;-76
2021/08/14 04:03:53;;;;;;;16.58;13.20;;;15.90;99.90;;;;;;5051375;28;20037;-78
2021/08/14 04:06:19;;;;;;;15.45;13.82;;;15.90;99.90;;;;;;5065249;28;20029;-76
2021/08/14 04:08:45;;;;;;;17.60;13.65;;;15.90;99.90;;;;;;5064504;28;20036;-76
2021/08/14 04:11:11;;;;;;;18.75;14.80;;;15.80;99.90;;;;;;5069035;28;20377;-77
2021/08/14 04:13:38;;;;;;;19.52;14.57;;;15.70;99.90;;;;;;5051259;28;20036;-76
2021/08/14 04:16:04;;;;;;;18.80;14.68;;;15.70;99.90;;;;;;5051907;28;20029;-76
2021/08/14 04:18:30;;;;;;;19.95;15.63;;;15.70;99.90;;;;;;5069708;28;20033;-77
2021/08/14 04:20:56;;;;;;;17.10;14.45;;;15.70;99.90;;;;;;5053208;28;20036;-75
2021/08/14 04:23:22;;;;;;;19.08;15.98;;;15.70;99.90;;;;;;5054256;28;20036;-76
2021/08/14 04:25:49;;;;;;;15.98;13.98;;;15.90;99.90;;;;;;5054240;28;20033;-76
2021/08/14 04:28:15;;;;;;;16.55;13.25;;;15.80;99.90;;;;;;5054338;28;20033;-76
2021/08/14 04:30:41;;;;;;;19.40;14.27;;;15.80;99.90;;;;;;5054694;28;20041;-76
2021/08/14 04:33:07;;;;;;;16.30;14.60;;;15.80;99.90;;;;;;5054654;28;20499;-76
2021/08/14 04:35:34;;;;;;;17.65;13.75;;;15.90;99.90;;;;;;5071138;28;21078;-76
2021/08/14 04:38:00;;;;;;;15.95;14.07;;;16.10;99.90;;;;;;5062664;28;20041;-76
2021/08/14 04:40:26;;;;;;;15.98;13.43;;;16.10;99.90;;;;;;5054017;28;20363;-76
2021/08/14 04:42:52;;;;;;;16.50;13.38;;;16.10;99.90;;;;;;5061250;28;20044;-75
2021/08/14 04:45:18;;;;;;;16.10;12.90;;;16.10;99.90;;;;;;5068067;28;20045;-75
2021/08/14 04:47:45;;;;;;;14.57;12.90;;;16.10;99.90;;;;;;5055214;28;20450;-76
2021/08/14 04:50:11;;;;;;;14.52;12.15;;;16.10;99.90;;;;;;5054143;28;20029;-79
2021/08/14 04:52:38;;;;;;;15.75;13.05;;;16.10;99.90;;;;;;5053997;28;20033;-76
2021/08/14 04:55:04;;;;;;;14.27;12.50;;;16.00;99.90;;;;;;5062954;28;20059;-76
2021/08/14 04:57:31;;;;;;;15.07;12.50;;;16.00;99.90;;;;;;5064267;28;20573;-77
2021/08/14 04:59:57;;;;;;;14.85;12.70;;;16.20;99.90;;;;;;5063234;28;20033;-77
2021/08/14 05:02:23;;;;;;;13.48;11.70;;;16.70;99.90;;;;;;5061052;28;20037;-78
2021/08/14 05:04:49;;;;;;;11.95;10.70;;;17.20;99.90;;;;;;5060062;28;20033;-78
2021/08/14 05:07:15;;;;;;;13.02;11.15;;;17.80;99.90;;;;;;5068214;28;20048;-79
2021/08/14 05:09:43;;;;;;;12.38;10.75;;;18.50;99.90;;;;;;5054078;28;20036;-77
2021/08/14 05:12:10;;;;;;;12.18;10.68;;;19.20;99.90;;;;;;5055261;28;20034;-80
2021/08/14 05:14:36;;;;;;;11.27;9.88;;;19.60;99.90;;;;;;5053875;28;20067;-77
2021/08/14 05:17:03;;;;;;;15.85;10.45;;;19.70;99.90;;;;;;5052642;28;20037;-76
2021/08/14 05:19:30;;;;;;;12.45;11.20;;;20.10;99.90;;;;;;5067408;28;20036;-77
2021/08/14 05:21:56;;;;;;;12.45;10.63;;;20.30;99.90;;;;;;5053632;28;20033;-77
2021/08/14 05:24:22;;;;;;;10.43;9.43;;;20.30;99.40;;;;;;5052951;28;20036;-77
2021/08/14 05:26:48;;;;;;;15.00;11.20;;;20.60;99.90;;;;;;5053507;28;20029;-77
2021/08/14 05:29:15;;;;;;;11.65;10.48;;;21.30;98.20;;;;;;5053365;28;20036;-77
2021/08/14 05:31:41;;;;;;;12.38;10.00;;;21.80;95.40;;;;;;5056959;28;20424;-77
2021/08/14 05:34:07;;;;;;;12.50;11.30;;;22.00;94.80;;;;;;5051676;28;20512;-77
2021/08/14 05:36:34;;;;;;;13.25;11.57;;;22.40;94.00;;;;;;5053353;28;20093;-77
2021/08/14 05:39:01;;;;;;;11.95;10.27;;;23.20;93.00;;;;;;5056072;28;20020;-77
2021/08/14 05:41:27;;;;;;;12.18;10.00;;;23.50;90.20;;;;;;5068599;28;20032;-77
2021/08/14 05:43:53;;;;;;;12.63;11.05;;;23.70;89.80;;;;;;5053516;28;20040;-79
2021/08/14 05:46:19;;;;;;;12.40;11.20;;;23.70;89.00;;;;;;5053037;28;20033;-75
2021/08/14 05:48:45;;;;;;;16.83;11.45;;;24.10;88.40;;;;;;5069332;28;20051;-77
2021/08/14 05:51:13;;;;;;;12.55;11.23;;;24.20;88.50;;;;;;5066396;28;20045;-81
2021/08/14 05:53:40;;;;;;;14.45;11.63;;;24.90;85.80;;;;;;5064690;28;20036;-78
2021/08/14 05:56:06;;;;;;;13.80;11.70;;;24.80;85.30;;;;;;5057421;28;20036;-80
2021/08/14 05:58:32;;;;;;;14.30;12.27;;;25.20;84.20;;;;;;5066408;28;20025;-79
2021/08/14 06:00:59;;;;;;;12.93;11.60;;;25.70;81.40;;;;;;5052444;28;20029;-76
2021/08/14 06:03:25;;;;;;;13.25;11.70;;;26.40;79.20;;;;;;5064044;28;20041;-76
2021/08/14 06:05:51;;;;;;;17.13;11.90;;;26.40;78.40;;;;;;5063506;28;20025;-75
2021/08/14 06:08:17;;;;;;;13.95;12.55;;;26.80;76.10;;;;;;5052089;28;20025;-75
2021/08/14 06:10:43;;;;;;;14.35;12.23;;;27.10;75.20;;;;;;5056880;28;20044;-76
2021/08/14 06:13:10;;;;;;;12.77;11.57;;;26.70;74.20;;;;;;5061502;28;20481;-81
2021/08/14 06:15:36;;;;;;;14.35;11.40;;;26.90;75.10;;;;;;5068152;28;20059;-78
2021/08/14 06:18:02;;;;;;;16.52;12.38;;;27.00;73.20;;;;;;5059655;28;20481;-76
2021/08/14 06:20:28;;;;;;;13.32;11.98;;;26.80;75.30;;;;;;5050169;28;20045;-75
2021/08/14 06:22:54;;;;;;;13.63;12.25;;;27.50;73.30;;;;;;5055699;28;20029;-78
2021/08/14 06:25:21;;;;;;;16.10;12.52;;;28.00;71.50;;;;;;5058273;28;20059;-78
2021/08/14 06:27:47;;;;;;;16.83;12.88;;;27.40;70.20;;;;;;5070924;28;20036;-78
2021/08/14 06:30:14;;;;;;;14.10;12.77;;;26.20;73.00;;;;;;5060677;28;20060;-78
2021/08/14 06:32:40;;;;;;;14.75;12.20;;;25.70;76.70;;;;;;5062937;28;20037;-77
2021/08/14 06:35:07;;;;;;;14.73;13.23;;;26.70;73.40;;;;;;5052450;28;20044;-77
2021/08/14 06:37:39;;;;;;;16.63;12.55;;;27.60;71.10;;;;;;5064080;28;20028;-79
2021/08/14 06:40:06;;;;;;;15.27;13.73;;;27.90;68.90;;;;;;5087181;28;20474;-78
2021/08/14 06:42:32;;;;;;;15.80;12.27;;;26.90;71.30;;;;;;5051570;28;20039;-77
2021/08/14 06:44:58;;;;;;;15.55;13.90;;;25.90;74.20;;;;;;5066022;28;20033;-76
2021/08/14 06:47:24;;;;;;;18.98;14.27;;;24.90;76.20;;;;;;5049318;28;20041;-76
2021/08/14 06:49:51;;;;;;;16.27;14.15;;;24.60;77.80;;;;;;5053662;28;20028;-75
2021/08/14 06:52:17;;;;;;;15.93;14.25;;;25.00;76.60;;;;;;5062425;28;20447;-76
2021/08/14 06:54:43;;;;;;;15.45;13.55;;;24.70;77.20;;;;;;5052460;28;20033;-75
2021/08/14 06:57:09;;;;;;;18.20;15.52;;;24.40;79.20;;;;;;5057347;28;20485;-75
2021/08/14 06:59:35;;;;;;;17.40;15.05;;;24.40;78.90;;;;;;5065661;28;20033;-74
2021/08/14 07:02:02;;;;;;;18.45;16.52;;;24.40;79.50;;;;;;5052376;28;20029;-76
2021/08/14 07:04:28;;;;;;;18.23;15.32;;;24.40;79.60;;;;;;5059723;28;20040;-75
2021/08/14 07:06:54;;;;;;;21.17;17.67;;;24.30;80.30;;;;;;5051855;28;20386;-78
2021/08/14 07:09:21;;;;;;;20.48;17.23;;;24.40;79.60;;;;;;5050918;28;20041;-75
2021/08/14 07:11:47;;;;;;;16.77;15.07;;;24.40;79.10;;;;;;5059501;28;20028;-75
2021/08/14 07:14:13;;;;;;;17.13;14.85;;;24.60;80.40;;;;;;5051838;28;20037;-78
2021/08/14 07:16:39;;;;;;;17.73;16.10;;;25.60;76.50;;;;;;5059895;28;20044;-75
2021/08/14 07:19:06;;;;;;;16.23;14.52;;;26.20;74.60;;;;;;5060986;28;20037;-75
2021/08/14 07:21:32;;;;;;;16.77;12.90;;;27.10;71.80;;;;;;5056979;28;20025;-75
2021/08/14 07:23:58;;;;;;;17.17;14.93;;;26.10;75.20;;;;;;5068680;28;20040;-76
2021/08/14 07:26:24;;;;;;;13.88;12.48;;;25.00;78.10;;;;;;5056898;28;20028;-76
2021/08/14 07:28:50;;;;;;;18.50;13.88;;;24.70;79.60;;;;;;5056127;28;20033;-76
2021/08/14 07:31:17;;;;;;;18.25;13.48;;;25.00;79.40;;;;;;5051599;28;20386;-76
2021/08/14 07:33:43;;;;;;;16.80;15.05;;;25.70;76.90;;;;;;5052680;28;20052;-77
2021/08/14 07:36:09;;;;;;;20.55;17.13;;;26.20;75.20;;;;;;5070009;28;20040;-77
2021/08/14 07:38:35;;;;;;;20.55;15.82;;;26.20;73.90;;;;;;5050933;28;20040;-76
2021/08/14 07:41:02;;;;;;;20.25;16.60;;;26.70;74.70;;;;;;5051452;28;20029;-77
2021/08/14 07:43:28;;;;;;;19.10;17.20;;;27.40;70.30;;;;;;5051516;28;20033;-76
2021/08/14 07:45:54;;;;;;;22.42;19.67;;;28.00;68.90;;;;;;5071761;28;20043;-76
2021/08/14 07:48:20;;;;;;;20.20;17.92;;;26.80;70.30;;;;;;5069554;28;20043;-76
2021/08/14 07:50:47;;;;;;;20.02;16.88;;;26.30;72.50;;;;;;5071006;28;20024;-77
2021/08/14 07:53:13;;;;;;;22.25;18.95;;;26.70;72.50;;;;;;5068914;28;20060;-80
2021/08/14 07:55:39;;;;;;;24.02;20.05;;;26.50;70.60;;;;;;5070751;28;20036;-78
2021/08/14 07:58:11;;;;;;;19.98;17.77;;;26.20;71.20;;;;;;5082232;28;20458;-77
2021/08/14 08:00:38;;;;;;;19.45;16.70;;;26.30;72.00;;;;;;5082758;28;20040;-76
2021/08/14 08:03:04;;;;;;;20.75;16.75;;;26.80;69.40;;;;;;5075521;28;20029;-78
2021/08/14 08:05:30;;;;;;;18.70;16.60;;;27.20;68.20;;;;;;5076710;28;20044;-78
2021/08/14 08:07:56;;;;;;;18.27;16.40;;;27.00;67.40;;;;;;5066257;28;20454;-78
2021/08/14 08:10:23;;;;;;;21.73;16.98;;;26.10;69.80;;;;;;5053969;28;20047;-78
2021/08/14 08:12:49;;;;;;;20.17;15.45;;;26.00;70.30;;;;;;5054893;28;20025;-77
2021/08/14 08:15:16;;;;;;;20.70;16.00;;;26.50;70.60;;;;;;5054754;28;20128;-81
2021/08/14 08:17:43;;;;;;;17.95;15.50;;;26.60;68.90;;;;;;5067642;28;20037;-75
2021/08/14 08:20:11;;;;;;;19.45;15.63;;;26.20;70.80;;;;;;5065906;28;20040;-75
2021/08/14 08:22:37;;;;;;;19.77;16.83;;;26.40;70.60;;;;;;5066520;28;20047;-78
2021/08/14 08:25:04;;;;;;;19.63;17.00;;;26.80;70.00;;;;;;5054794;28;20031;-76
2021/08/14 08:27:31;;;;;;;19.88;16.90;;;26.90;67.90;;;;;;5054993;28;20398;-75
2021/08/14 08:29:57;;;;;;;16.17;14.68;;;27.20;67.40;;;;;;5071194;28;20044;-77
2021/08/14 08:32:24;;;;;;;17.55;15.20;;;27.60;66.50;;;;;;5056347;28;20045;-76
2021/08/14 08:34:50;;;;;;;15.43;13.75;;;27.70;68.20;;;;;;5052113;28;20072;-76
2021/08/14 08:37:16;;;;;;;16.92;14.52;;;28.60;66.40;;;;;;5055277;28;20048;-77
2021/08/14 08:39:42;;;;;;;17.20;15.32;;;28.70;64.10;;;;;;5072781;28;20036;-75
2021/08/14 08:42:09;;;;;;;18.00;16.17;;;28.20;63.60;;;;;;5064109;28;20459;-76
2021/08/14 08:44:35;;;;;;;18.27;14.48;;;27.60;65.50;;;;;;5054444;28;20029;-76
2021/08/14 08:47:06;;;;;;;16.08;12.52;;;27.50;65.00;;;;;;5093031;28;20029;-76
2021/08/14 08:49:33;;;;;;;14.05;11.50;;;27.70;65.60;;;;;;5069969;28;20489;-74
2021/08/14 08:52:00;;;;;;;13.73;11.23;;;28.30;63.60;;;;;;5055888;28;20486;-75
2021/08/14 08:54:26;;;;;;;13.23;11.05;;;28.60;63.70;;;;;;5069867;28;20048;-75
2021/08/14 08:56:52;;;;;;;14.50;11.13;;;28.90;63.70;;;;;;5068216;28;20045;-76
2021/08/14 08:59:18;;;;;;;13.95;11.85;;;29.60;61.70;;;;;;5053765;28;20040;-76
2021/08/14 09:01:45;;;;;;;17.20;13.05;;;28.80;62.00;;;;;;5053386;28;20347;-77
2021/08/14 09:04:23;;;;;;;12.90;11.52;;;28.60;62.70;;;;;;5058664;28;20058;-75
2021/08/14 09:06:49;;;;;;;11.02;9.70;;;28.00;62.80;;;;;;5053903;28;20037;-76
2021/08/14 09:09:15;;;;;;;11.75;9.73;;;27.30;66.10;;;;;;5052356;28;20040;-79
2021/08/14 09:11:53;;;;;;;13.68;9.73;;;27.40;66.70;;;;;;5067140;28;20470;-75
2021/08/14 09:14:19;;;;;;;11.95;9.50;;;28.20;62.70;;;;;;5053987;28;20044;-76
2021/08/14 09:17:02;;;;;;;10.80;8.23;;;28.80;63.40;;;;;;5057391;28;20037;-76
2021/08/14 09:19:28;;;;;;;15.38;9.75;;;29.00;61.70;;;;;;5056368;28;20044;-75
2021/08/14 09:21:54;;;;;;;14.75;10.30;;;29.50;60.50;;;;;;5064909;28;20047;-75
2021/08/14 09:24:38;;;;;;;12.43;11.13;;;29.80;58.60;;;;;;5062354;28;20029;-76
2021/08/14 09:27:05;;;;;;;15.40;11.50;;;29.30;58.80;;;;;;5066816;28;20040;-76
2021/08/14 09:29:42;;;;;;;16.35;10.35;;;29.60;58.60;;;;;;5060865;28;20058;-77
2021/08/14 09:32:14;;;;;;;9.90;8.90;;;30.00;59.70;;;;;;5060030;28;20024;-78
2021/08/14 09:34:42;;;;;;;12.75;9.77;;;30.50;59.50;;;;;;5054287;28;20041;-73
2021/08/14 09:37:15;;;;;;;12.23;10.68;;;30.40;56.50;;;;;;5067492;28;20032;-73
2021/08/14 09:40:01;;;;;;;12.98;10.35;;;29.30;58.20;;;;;;5035540;28;20033;-74
2021/08/14 09:42:29;;;;;;;15.68;11.35;;;29.20;58.70;;;;;;5052722;28;20045;-74
2021/08/14 09:45:14;;;;;;;10.75;9.57;;;29.00;59.00;;;;;;5053280;28;20033;-73
2021/08/14 09:47:42;;;;;;;15.88;10.07;;;28.60;59.10;;;;;;5053140;28;20029;-74
2021/08/14 09:50:08;;;;;;;10.63;9.13;;;28.40;58.20;;;;;;5052877;28;20028;-73
2021/08/14 09:52:35;;;;;;;10.82;9.55;;;28.20;59.60;;;;;;5052412;28;20040;-73
2021/08/14 09:55:02;;;;;;;9.05;7.00;;;28.80;60.10;;;;;;5052670;28;20088;-73
2021/08/14 09:57:29;;;;;;;13.80;7.90;;;29.10;58.60;;;;;;5053768;28;20091;-74
2021/08/14 09:59:59;;;;;;;14.85;7.97;;;29.40;57.60;;;;;;5067064;28;20033;-73
2021/08/14 10:02:27;;;;;;;10.50;7.95;;;29.40;57.70;;;;;;5060088;28;20029;-73
2021/08/14 10:04:57;;;;;;;10.55;8.77;;;29.20;58.00;;;;;;5060387;28;20493;-72
2021/08/14 10:07:24;;;;;;;12.23;9.10;;;28.70;58.30;;;;;;5052503;28;20029;-73
2021/08/14 10:09:52;;;;;;;8.98;8.07;;;28.20;59.20;;;;;;5056966;28;20028;-73
2021/08/14 10:12:20;;;;;;;10.88;6.68;;;28.30;59.90;;;;;;5065612;28;20029;-74
2021/08/14 10:14:49;;;;;;;10.23;6.60;;;28.70;57.50;;;;;;5052618;28;20045;-74
2021/08/14 10:17:16;;;;;;;9.23;8.10;;;29.00;57.10;;;;;;5052477;28;20033;-75
2021/08/14 10:19:43;;;;;;;9.65;7.43;;;28.70;57.50;;;;;;5052334;28;20033;-72
2021/08/14 10:22:10;;;;;;;8.45;6.45;;;27.70;58.90;;;;;;5052308;28;20033;-73
2021/08/14 10:24:37;;;;;;;11.05;6.75;;;27.90;59.40;;;;;;5051578;28;20039;-73
2021/08/14 10:27:15;;;;;;;7.30;6.38;;;28.30;58.30;;;;;;5069712;28;20045;-73
2021/08/14 10:29:46;;;;;;;8.68;6.25;;;28.70;56.60;;;;;;5063366;28;20033;-73
2021/08/14 10:32:30;;;;;;;7.35;6.47;;;29.00;56.40;;;;;;5056034;28;20036;-73
2021/08/14 10:35:11;;;;;;;8.45;6.07;;;28.80;54.90;;;;;;5069050;28;20052;-73
2021/08/14 10:37:39;;;;;;;9.43;6.47;;;28.80;54.90;;;;;;5065171;28;20028;-72
2021/08/14 10:40:06;;;;;;;7.55;6.53;;;28.90;54.50;;;;;;5060134;28;20032;-73
2021/08/14 10:42:54;;;;;;;7.38;5.82;;;28.80;57.00;;;;;;5062204;28;20503;-72
2021/08/14 10:45:37;;;;;;;7.70;5.45;;;28.80;56.00;;;;;;5053835;28;20394;-74
2021/08/14 10:48:05;;;;;;;8.85;6.53;;;28.90;55.70;;;;;;5054541;28;20048;-74
2021/08/14 10:50:31;;;;;;;6.80;5.35;;;29.40;55.10;;;;;;5051419;28;20029;-74
2021/08/14 10:53:18;;;;;;;6.90;5.75;;;29.70;53.20;;;;;;5052352;28;20036;-74
2021/08/14 10:55:53;;;;;;;6.63;5.13;;;29.30;54.40;;;;;;5070544;28;20043;-76
2021/08/14 10:58:23;;;;;;;7.20;5.40;;;29.30;53.40;;;;;;5053478;28;20044;-77
2021/08/14 11:01:13;;;;;;;6.63;5.25;;;29.40;54.60;;;;;;5071131;28;20033;-75
2021/08/14 11:03:40;;;;;;;7.22;5.75;;;29.40;54.10;;;;;;5057427;28;20492;-77
2021/08/14 11:06:26;;;;;;;7.55;5.82;;;29.50;55.10;;;;;;5051711;28;20029;-77
2021/08/14 11:09:17;;;;;;;10.40;6.07;;;29.90;54.30;;;;;;5052450;28;20056;-75
2021/08/14 11:12:00;;;;;;;9.93;7.47;;;29.60;53.70;;;;;;5060596;28;20382;-76
2021/08/14 11:14:43;;;;;;;8.57;6.43;;;28.80;53.50;;;;;;5055963;28;20044;-76
2021/08/14 11:17:11;;;;;;;7.32;5.60;;;28.70;55.40;;;;;;5068257;28;20032;-75
2021/08/14 11:19:47;;;;;;;8.23;6.25;;;28.70;55.70;;;;;;5067394;28;20512;-74
2021/08/14 11:22:42;;;;;;;7.28;6.47;;;28.80;55.30;;;;;;5062231;28;20358;-76
2021/08/14 11:25:28;;;;;;;6.93;6.20;;;28.70;55.50;;;;;;5047721;28;20051;-77
2021/08/14 11:28:08;;;;;;;12.52;6.57;;;28.80;55.30;;;;;;5051834;28;20029;-78
2021/08/14 11:30:43;;;;;;;9.30;6.57;;;28.70;55.10;;;;;;5051249;28;20375;-77
2021/08/14 11:33:11;;;;;;;7.43;5.65;;;28.70;55.40;;;;;;5055094;28;20049;-75
2021/08/14 11:35:40;;;;;;;7.50;5.47;;;28.90;55.20;;;;;;5055228;28;20048;-78
2021/08/14 11:38:11;;;;;;;9.45;5.95;;;29.00;55.20;;;;;;5053896;28;20036;-75
2021/08/14 11:40:39;;;;;;;8.57;5.45;;;29.30;54.70;;;;;;5069087;28;20656;-75
2021/08/14 11:43:07;;;;;;;7.53;5.60;;;29.40;53.80;;;;;;5055019;28;20033;-75
2021/08/14 11:45:37;;;;;;;7.57;6.40;;;29.20;55.00;;;;;;5055753;28;20029;-74
2021/08/14 11:48:12;;;;;;;7.88;5.32;;;29.20;53.90;;;;;;5054316;28;20033;-77
2021/08/14 11:50:47;;;;;;;7.68;6.00;;;29.00;54.30;;;;;;5054331;28;20033;-73
2021/08/14 11:53:27;;;;;;;6.88;5.68;;;28.90;54.60;;;;;;5054100;28;20052;-74
2021/08/14 11:56:04;;;;;;;7.30;5.68;;;28.90;54.70;;;;;;5055026;28;20048;-76
2021/08/14 11:58:30;;;;;;;10.48;5.97;;;29.00;54.40;;;;;;5055818;28;20032;-74
2021/08/14 12:00:58;;;;;;;9.20;5.28;;;29.10;53.90;;;;;;5055847;28;20475;-76
2021/08/14 12:03:25;;;;;;;6.55;4.97;;;28.80;53.60;;;;;;5054914;28;20040;-75
2021/08/14 12:05:52;;;;;;;8.52;5.07;;;28.80;54.60;;;;;;5086479;28;20048;-75
2021/08/14 12:08:42;;;;;;;6.93;5.55;;;29.10;54.70;;;;;;5055277;28;20041;-76
2021/08/14 12:11:19;;;;;;;6.82;5.75;;;29.40;54.20;;;;;;5055495;28;20021;-75
2021/08/14 12:13:45;;;;;;;6.15;5.35;;;29.60;54.10;;;;;;5060732;28;20056;-76
2021/08/14 12:16:13;;;;;;;8.63;5.00;;;29.70;53.70;;;;;;5068638;28;20037;-74
2021/08/14 12:18:42;;;;;;;6.55;5.32;;;29.70;53.70;;;;;;5059665;28;20037;-76
2021/08/14 12:21:10;;;;;;;7.10;5.72;;;29.50;53.60;;;;;;5059458;28;20079;-75
2021/08/14 12:23:37;;;;;;;11.30;5.90;;;29.30;53.90;;;;;;5073353;28;20358;-77
2021/08/14 12:26:09;;;;;;;8.73;5.78;;;29.60;53.40;;;;;;5064279;28;20037;-75
2021/08/14 12:28:40;;;;;;;8.07;5.60;;;29.40;53.60;;;;;;5068353;28;20033;-77
2021/08/14 12:31:18;;;;;;;10.38;5.50;;;29.60;54.10;;;;;;5063340;28;20029;-77
2021/08/14 12:33:51;;;;;;;7.68;5.50;;;29.70;53.60;;;;;;5055614;28;20049;-79
2021/08/14 12:36:38;;;;;;;8.45;6.05;;;29.80;53.00;;;;;;5052861;28;20041;-77